createdAt,value
2023-04-21T00:00:14.662Z,11.50
2023-04-21T00:02:42.174Z,11.33
2023-04-21T00:05:10.907Z,11.32
2023-04-21T00:07:39.441Z,11.60
2023-04-21T00:10:08.653Z,11.40
2023-04-21T00:12:36.145Z,11.00
2023-04-21T00:15:04.559Z,11.93
2023-04-21T00:17:31.796Z,11.33
2023-04-21T00:19:59.722Z,11.17
2023-04-21T00:22:27.010Z,12.10
2023-04-21T00:24:54.221Z,11.30
2023-04-21T00:27:21.617Z,11.43
2023-04-21T00:29:48.868Z,12.20
2023-04-21T00:32:16.230Z,11.80
2023-04-21T00:34:43.481Z,12.82
2023-04-21T00:37:12.563Z,11.30
2023-04-21T00:39:40.219Z,12.10
2023-04-21T00:42:07.666Z,11.97
2023-04-21T00:44:36.316Z,11.33
2023-04-21T00:47:04.743Z,13.47
2023-04-21T00:49:32.448Z,12.63
2023-04-21T00:51:59.842Z,12.90
2023-04-21T00:54:27.853Z,11.83
2023-04-21T00:56:55.547Z,12.53
2023-04-21T00:59:22.862Z,13.20
2023-04-21T01:01:52.783Z,12.60
2023-04-21T01:04:21.838Z,13.10
2023-04-21T01:06:49.535Z,12.77
2023-04-21T01:09:17.682Z,12.13
2023-04-21T01:12:05.279Z,12.05
2023-04-21T01:14:36.204Z,11.87
2023-04-21T01:17:07.844Z,13.07
2023-04-21T01:19:42.869Z,13.23
2023-04-21T01:22:11.787Z,11.93
2023-04-21T01:24:41.470Z,12.77
2023-04-21T01:27:21.227Z,13.63
2023-04-21T01:29:51.777Z,13.10
2023-04-21T01:32:22.931Z,13.17
2023-04-21T01:34:53.828Z,12.47
2023-04-21T01:37:24.086Z,12.65
2023-04-21T01:39:55.017Z,12.70
2023-04-21T01:42:24.799Z,12.80
2023-04-21T01:44:53.838Z,12.93
2023-04-21T01:47:22.017Z,13.17
2023-04-21T01:49:49.380Z,14.37
2023-04-21T01:52:16.823Z,14.03
2023-04-21T01:54:44.228Z,12.57
2023-04-21T01:57:11.909Z,13.77
2023-04-21T01:59:40.501Z,12.57
2023-04-21T02:02:08.024Z,15.00
2023-04-21T02:04:36.176Z,13.13
2023-04-21T02:07:03.555Z,14.13
2023-04-21T02:09:31.618Z,12.10
2023-04-21T02:11:59.073Z,12.83
2023-04-21T02:14:26.865Z,13.47
2023-04-21T02:16:56.079Z,14.50
2023-04-21T02:19:24.289Z,14.40
2023-04-21T02:21:51.657Z,13.53
2023-04-21T02:24:22.460Z,14.67
2023-04-21T02:26:49.769Z,13.50
2023-04-21T02:29:17.148Z,14.07
2023-04-21T02:31:57.873Z,12.73
2023-04-21T02:34:28.511Z,14.37
2023-04-21T02:36:55.899Z,13.43
2023-04-21T02:39:23.208Z,13.67
2023-04-21T02:41:50.497Z,13.70
2023-04-21T02:44:17.915Z,14.20
2023-04-21T02:46:45.769Z,13.73
2023-04-21T02:49:13.576Z,14.23
2023-04-21T02:51:40.999Z,14.40
2023-04-21T02:54:08.340Z,14.90
2023-04-21T02:56:35.816Z,14.20
2023-04-21T02:59:03.034Z,15.47
2023-04-21T03:01:30.333Z,15.30
2023-04-21T03:03:57.689Z,15.83
2023-04-21T03:06:25.275Z,14.80
2023-04-21T03:08:52.469Z,14.97
2023-04-21T03:11:19.722Z,16.60
2023-04-21T03:13:47.050Z,14.67
2023-04-21T03:16:14.439Z,14.80
2023-04-21T03:18:44.601Z,15.73
2023-04-21T03:21:13.242Z,16.10
2023-04-21T03:23:40.527Z,15.43
2023-04-21T03:26:08.628Z,16.27
2023-04-21T03:28:36.040Z,14.67
2023-04-21T03:31:03.643Z,15.77
2023-04-21T03:33:30.905Z,15.43
2023-04-21T03:35:58.987Z,15.47
2023-04-21T03:38:30.412Z,16.07
2023-04-21T03:40:57.684Z,15.50
2023-04-21T03:43:24.933Z,16.30
2023-04-21T03:45:52.364Z,14.60
2023-04-21T03:48:19.745Z,15.03
2023-04-21T03:50:47.050Z,18.00
2023-04-21T03:53:14.407Z,16.10
2023-04-21T03:55:41.853Z,16.70
2023-04-21T03:58:09.109Z,16.20
2023-04-21T04:00:36.490Z,17.40
2023-04-21T04:03:03.958Z,16.53
2023-04-21T04:05:31.546Z,17.20
2023-04-21T04:07:59.017Z,14.67
2023-04-21T04:10:26.316Z,17.97
2023-04-21T04:12:55.149Z,16.67
2023-04-21T04:15:22.521Z,16.83
2023-04-21T04:17:49.814Z,16.70
2023-04-21T04:20:17.162Z,15.97
2023-04-21T04:22:44.476Z,16.00
2023-04-21T04:25:12.875Z,17.13
2023-04-21T04:27:40.470Z,18.10
2023-04-21T04:30:08.652Z,16.47
2023-04-21T04:32:38.093Z,17.30
2023-04-21T04:35:06.548Z,17.30
2023-04-21T04:37:36.847Z,17.47
2023-04-21T04:40:06.315Z,16.43
2023-04-21T04:42:34.698Z,18.27
2023-04-21T04:45:02.651Z,17.20
2023-04-21T04:47:30.039Z,15.57
2023-04-21T04:49:57.221Z,16.50
2023-04-21T04:52:26.334Z,17.70
2023-04-21T04:54:53.639Z,18.10
2023-04-21T04:57:20.876Z,15.13
2023-04-21T04:59:48.101Z,17.20
2023-04-21T05:02:41.256Z,15.97
2023-04-21T05:05:09.054Z,16.03
2023-04-21T05:07:36.725Z,17.27
2023-04-21T05:10:04.682Z,15.80
2023-04-21T05:12:34.683Z,17.37
2023-04-21T05:15:02.364Z,17.53
2023-04-21T05:17:31.109Z,18.20
2023-04-21T05:19:58.612Z,16.83
2023-04-21T05:22:26.302Z,17.93
2023-04-21T05:24:53.923Z,16.33
2023-04-21T05:27:21.332Z,18.60
2023-04-21T05:29:48.926Z,15.83
2023-04-21T05:32:16.410Z,16.70
2023-04-21T05:34:43.825Z,15.70
2023-04-21T05:37:14.866Z,15.63
2023-04-21T05:39:42.274Z,15.80
2023-04-21T05:42:12.746Z,14.70
2023-04-21T05:44:40.159Z,14.83
2023-04-21T05:47:08.010Z,16.07
2023-04-21T05:49:35.423Z,16.27
2023-04-21T05:52:02.838Z,16.27
2023-04-21T05:54:30.108Z,16.33
2023-04-21T05:56:57.383Z,15.40
2023-04-21T05:59:26.352Z,16.30
2023-04-21T06:01:53.600Z,15.43
2023-04-21T06:04:21.247Z,14.63
2023-04-21T06:06:48.862Z,15.70
2023-04-21T06:09:16.139Z,15.83
2023-04-21T06:11:43.381Z,16.07
2023-04-21T06:14:10.830Z,16.50
2023-04-21T06:16:38.273Z,16.47
2023-04-21T06:19:05.780Z,16.60
2023-04-21T06:21:33.237Z,16.20
2023-04-21T06:24:00.629Z,15.63
2023-04-21T06:26:27.890Z,16.70
2023-04-21T06:28:55.142Z,15.93
2023-04-21T06:31:22.504Z,16.33
2023-04-21T06:33:49.832Z,14.80
2023-04-21T06:36:18.155Z,14.37
2023-04-21T06:38:45.929Z,15.43
2023-04-21T06:41:13.299Z,14.80
2023-04-21T06:43:41.000Z,14.73
2023-04-21T06:46:08.604Z,15.37
2023-04-21T06:48:35.928Z,15.20
2023-04-21T06:51:03.276Z,13.83
2023-04-21T06:53:30.681Z,14.40
2023-04-21T06:55:57.999Z,15.13
2023-04-21T06:58:25.471Z,13.80
2023-04-21T07:00:52.800Z,13.33
2023-04-21T07:03:20.187Z,15.33
2023-04-21T07:05:47.772Z,14.00
2023-04-21T07:08:15.077Z,14.27
2023-04-21T07:10:42.410Z,15.23
2023-04-21T07:13:10.234Z,14.43
2023-04-21T07:15:37.671Z,15.02
2023-04-21T07:18:04.978Z,13.48
2023-04-21T07:20:32.336Z,14.70
2023-04-21T07:22:59.617Z,14.43
2023-04-21T07:25:26.952Z,16.35
2023-04-21T07:27:54.279Z,12.67
2023-04-21T07:30:21.806Z,13.23
2023-04-21T07:32:49.303Z,15.05
2023-04-21T07:35:17.025Z,14.20
2023-04-21T07:37:44.619Z,12.88
2023-04-21T07:40:12.302Z,12.45
2023-04-21T07:42:39.783Z,13.10
2023-04-21T07:45:07.628Z,13.02
2023-04-21T07:47:35.391Z,12.52
2023-04-21T07:50:02.777Z,13.50
2023-04-21T07:52:30.392Z,14.10
2023-04-21T07:54:57.699Z,12.83
2023-04-21T07:57:25.240Z,14.38
2023-04-21T07:59:52.659Z,14.40
2023-04-21T08:02:20.047Z,13.23
2023-04-21T08:04:47.460Z,13.85
2023-04-21T08:07:15.817Z,14.55
2023-04-21T08:09:43.362Z,13.17
2023-04-21T08:12:10.619Z,14.02
2023-04-21T08:14:38.001Z,12.60
2023-04-21T08:17:05.400Z,13.88
2023-04-21T08:19:32.832Z,14.35
2023-04-21T08:22:00.789Z,12.43
2023-04-21T08:24:28.293Z,13.10
2023-04-21T08:26:55.964Z,14.10
2023-04-21T08:29:23.710Z,13.95
2023-04-21T08:31:51.142Z,13.93
2023-04-21T08:34:21.001Z,14.15
2023-04-21T08:36:49.435Z,11.90
2023-04-21T08:39:17.030Z,12.95
2023-04-21T08:41:44.458Z,13.45
2023-04-21T08:44:11.938Z,14.52
2023-04-21T08:46:40.256Z,14.02
2023-04-21T08:49:10.001Z,14.50
2023-04-21T08:51:37.481Z,14.02
2023-04-21T08:54:05.422Z,13.70
2023-04-21T08:56:32.702Z,13.15
2023-04-21T08:59:00.116Z,13.35
2023-04-21T09:01:27.555Z,14.30
2023-04-21T09:04:14.850Z,13.10
2023-04-21T09:06:46.344Z,14.13
2023-04-21T09:09:13.848Z,13.15
2023-04-21T09:11:41.277Z,14.85
2023-04-21T09:14:09.816Z,11.70
2023-04-21T09:16:37.134Z,12.48
2023-04-21T09:19:15.350Z,12.80
2023-04-21T09:21:44.454Z,13.73
2023-04-21T09:24:13.144Z,13.05
2023-04-21T09:26:42.860Z,12.07
2023-04-21T09:29:10.400Z,12.77
2023-04-21T09:31:38.014Z,12.70
2023-04-21T09:34:26.498Z,12.82
2023-04-21T09:37:01.718Z,12.57
2023-04-21T09:39:43.149Z,14.50
2023-04-21T09:42:18.797Z,12.18
2023-04-21T09:44:52.493Z,12.98
2023-04-21T09:47:30.753Z,12.98
2023-04-21T09:49:59.123Z,11.70
2023-04-21T09:52:30.112Z,12.95
2023-04-21T09:55:04.316Z,12.98
2023-04-21T09:57:32.877Z,12.02
2023-04-21T10:00:12.131Z,11.43
2023-04-21T10:02:49.930Z,11.32
2023-04-21T10:05:17.822Z,11.85
2023-04-21T10:07:46.368Z,11.77
2023-04-21T10:10:21.306Z,11.18
2023-04-21T10:12:49.220Z,11.25
2023-04-21T10:15:30.754Z,12.30
2023-04-21T10:18:25.413Z,10.65
2023-04-21T10:21:02.107Z,10.57
2023-04-21T10:23:30.970Z,10.82
2023-04-21T10:26:07.088Z,10.55
2023-04-21T10:28:44.963Z,12.82
2023-04-21T10:31:29.894Z,12.23
2023-04-21T10:34:17.309Z,13.27
2023-04-21T10:36:56.602Z,11.45
2023-04-21T10:39:27.069Z,10.02
2023-04-21T10:42:12.959Z,9.27
2023-04-21T10:44:44.307Z,9.63
2023-04-21T10:47:11.864Z,10.32
2023-04-21T10:49:40.887Z,8.52
2023-04-21T10:52:09.912Z,8.55
2023-04-21T10:55:00.450Z,8.90
2023-04-21T10:57:32.700Z,8.23
2023-04-21T11:00:00.793Z,8.40
2023-04-21T11:02:28.308Z,8.57
2023-04-21T11:04:56.299Z,8.80
2023-04-21T11:07:24.407Z,8.93
2023-04-21T11:10:06.625Z,8.85
2023-04-21T11:12:39.552Z,8.15
2023-04-21T11:15:09.688Z,8.93
2023-04-21T11:17:43.220Z,9.40
2023-04-21T11:20:10.857Z,8.45
2023-04-21T11:22:38.776Z,8.02
2023-04-21T11:25:16.404Z,8.48
2023-04-21T11:27:56.839Z,8.02
2023-04-21T11:30:34.859Z,7.53
2023-04-21T11:33:02.728Z,8.20
2023-04-21T11:35:31.776Z,8.07
2023-04-21T11:38:04.181Z,7.80
2023-04-21T11:40:47.932Z,8.40
2023-04-21T11:43:15.669Z,8.50
2023-04-21T11:45:43.104Z,7.32
2023-04-21T11:48:17.505Z,6.35
2023-04-21T11:50:49.619Z,5.72
2023-04-21T11:53:17.285Z,5.75
2023-04-21T11:55:46.598Z,5.38
2023-04-21T11:58:16.464Z,5.97
2023-04-21T12:00:47.275Z,5.55
2023-04-21T12:03:15.069Z,5.97
2023-04-21T12:05:42.834Z,6.53
2023-04-21T12:08:16.722Z,6.00
2023-04-21T12:10:48.636Z,5.45
2023-04-21T12:13:27.399Z,5.75
2023-04-21T12:15:54.920Z,6.55
2023-04-21T12:18:26.976Z,6.72
2023-04-21T12:20:55.426Z,5.65
2023-04-21T12:23:22.845Z,6.35
2023-04-21T12:25:51.297Z,6.03
2023-04-21T12:28:18.720Z,5.35
2023-04-21T12:30:48.440Z,6.72
2023-04-21T12:33:16.002Z,7.45
2023-04-21T12:35:43.486Z,6.13
2023-04-21T12:38:11.094Z,5.88
2023-04-21T12:40:38.610Z,6.57
2023-04-21T12:43:05.858Z,6.60
2023-04-21T12:45:33.217Z,6.60
2023-04-21T12:48:00.939Z,6.88
2023-04-21T12:50:29.629Z,6.70
2023-04-21T12:52:56.952Z,6.90
2023-04-21T12:55:24.343Z,7.47
2023-04-21T12:57:52.763Z,7.13
2023-04-21T13:00:20.575Z,6.40
2023-04-21T13:02:47.931Z,7.70
2023-04-21T13:05:15.285Z,7.22
2023-04-21T13:07:42.669Z,7.30
2023-04-21T13:10:10.386Z,7.25
2023-04-21T13:12:37.996Z,7.10
2023-04-21T13:15:06.031Z,7.40
2023-04-21T13:17:33.392Z,6.38
2023-04-21T13:20:00.787Z,7.93
2023-04-21T13:22:28.241Z,7.85
2023-04-21T13:24:55.536Z,7.20
2023-04-21T13:27:22.805Z,7.72
2023-04-21T13:29:50.464Z,7.82
2023-04-21T13:32:17.935Z,6.85
2023-04-21T13:34:45.252Z,6.20
2023-04-21T13:37:16.100Z,7.82
2023-04-21T13:39:43.643Z,7.35
2023-04-21T13:42:11.347Z,6.32
2023-04-21T13:44:38.640Z,6.88
2023-04-21T13:47:08.758Z,5.95
2023-04-21T13:49:36.616Z,6.53
2023-04-21T13:52:04.285Z,6.10
2023-04-21T13:54:31.829Z,6.07
2023-04-21T13:56:59.340Z,5.72
2023-04-21T13:59:26.788Z,6.45
2023-04-21T14:01:54.046Z,6.13
2023-04-21T14:04:22.130Z,6.57
2023-04-21T14:06:51.153Z,7.22
2023-04-21T14:09:18.896Z,6.30
2023-04-21T14:11:46.352Z,5.07
2023-04-21T14:16:41.403Z,5.15
2023-04-21T14:19:10.225Z,5.43
2023-04-21T14:21:37.728Z,5.05
2023-04-21T14:24:05.166Z,5.15
2023-04-21T14:26:32.850Z,5.05
2023-04-21T14:29:01.452Z,4.78
2023-04-21T14:31:29.264Z,4.85
2023-04-21T14:33:56.663Z,4.38
2023-04-21T14:36:24.029Z,4.07
2023-04-21T14:38:51.295Z,4.30
2023-04-21T14:41:18.782Z,3.83
2023-04-21T14:43:47.714Z,4.00
2023-04-21T14:46:16.920Z,4.13
2023-04-21T14:48:44.694Z,4.28
2023-04-21T14:51:12.018Z,4.13
2023-04-21T14:53:40.620Z,3.47
2023-04-21T14:56:08.176Z,3.40
2023-04-21T14:58:38.057Z,3.58
2023-04-21T15:01:05.568Z,3.45
2023-04-21T15:03:32.943Z,3.53
2023-04-21T15:06:00.383Z,3.80
2023-04-21T15:08:27.732Z,3.50
2023-04-21T15:10:55.041Z,3.72
2023-04-21T15:13:22.807Z,3.70
2023-04-21T15:15:52.162Z,2.85
2023-04-21T15:18:20.925Z,3.28
2023-04-21T15:20:48.615Z,3.20
2023-04-21T15:23:16.163Z,3.72
2023-04-21T15:25:43.495Z,2.95
2023-04-21T15:28:11.181Z,3.60
2023-04-21T15:30:38.518Z,3.50
2023-04-21T15:33:06.013Z,3.08
2023-04-21T15:35:33.444Z,3.33
2023-04-21T15:38:00.806Z,3.58
2023-04-21T15:40:28.212Z,3.20
2023-04-21T15:42:55.525Z,2.97
2023-04-21T15:45:22.990Z,3.20
2023-04-21T15:47:50.306Z,3.72
2023-04-21T15:50:17.894Z,3.78
2023-04-21T15:52:45.297Z,3.15
2023-04-21T15:55:12.781Z,2.75
2023-04-21T15:57:40.089Z,2.95
2023-04-21T16:00:10.142Z,2.95
2023-04-21T16:02:38.093Z,3.13
2023-04-21T16:05:06.219Z,3.25
2023-04-21T16:07:33.670Z,3.17
2023-04-21T16:10:01.054Z,3.20
2023-04-21T16:12:28.542Z,3.50
2023-04-21T16:15:01.687Z,3.22
2023-04-21T16:17:36.794Z,3.03
2023-04-21T16:20:05.593Z,3.78
2023-04-21T16:22:32.994Z,3.28
2023-04-21T16:25:00.936Z,3.53
2023-04-21T16:27:28.313Z,3.30
2023-04-21T16:29:55.905Z,3.25
2023-04-21T16:32:23.236Z,3.40
2023-04-21T16:34:50.667Z,3.25
2023-04-21T16:37:18.051Z,3.50
2023-04-21T16:39:46.101Z,3.40
2023-04-21T16:42:13.428Z,3.58
2023-04-21T16:44:46.093Z,3.60
2023-04-21T16:47:13.598Z,3.85
2023-04-21T16:49:42.316Z,3.80
2023-04-21T16:52:17.360Z,3.60
2023-04-21T16:54:44.917Z,3.70
2023-04-21T16:57:12.646Z,3.47
2023-04-21T16:59:40.690Z,3.85
2023-04-21T17:02:08.074Z,4.38
2023-04-21T17:04:37.671Z,4.78
2023-04-21T17:07:06.271Z,4.30
2023-04-21T17:09:33.698Z,4.45
2023-04-21T17:12:01.240Z,4.22
2023-04-21T17:14:28.898Z,5.63
2023-04-21T17:16:56.446Z,4.47
2023-04-21T17:19:24.370Z,5.10
2023-04-21T17:21:51.601Z,4.00
2023-04-21T17:24:19.068Z,4.35
2023-04-21T17:26:46.740Z,4.28
2023-04-21T17:29:14.228Z,4.10
2023-04-21T17:31:41.517Z,3.92
2023-04-21T17:34:08.851Z,4.55
2023-04-21T17:36:36.297Z,4.97
2023-04-21T17:39:03.591Z,4.07
2023-04-21T17:41:31.046Z,4.78
2023-04-21T17:43:58.712Z,3.63
2023-04-21T17:46:26.381Z,5.07
2023-04-21T17:48:54.053Z,3.83
2023-04-21T17:51:21.393Z,3.80
2023-04-21T17:53:48.665Z,3.42
2023-04-21T17:56:16.081Z,3.45
2023-04-21T17:58:43.418Z,3.13
2023-04-21T18:01:10.912Z,3.53
2023-04-21T18:03:41.317Z,10.43
2023-04-21T18:06:11.243Z,5.95
2023-04-21T18:08:38.627Z,5.35
2023-04-21T18:11:06.266Z,4.38
2023-04-21T18:13:34.033Z,3.75
2023-04-21T18:16:01.772Z,3.83
2023-04-21T18:18:29.177Z,3.53
2023-04-21T18:20:56.461Z,3.08
2023-04-21T18:23:24.026Z,3.65
2023-04-21T18:25:51.568Z,3.50
2023-04-21T18:28:18.874Z,3.30
2023-04-21T18:30:46.849Z,4.20
2023-04-21T18:33:14.123Z,4.13
2023-04-21T18:35:42.197Z,3.65
2023-04-21T18:38:11.497Z,3.85
2023-04-21T18:40:40.401Z,3.65
2023-04-21T18:43:09.662Z,3.95
2023-04-21T18:45:37.476Z,3.80
2023-04-21T18:48:05.522Z,4.00
2023-04-21T18:50:35.222Z,2.70
2023-04-21T18:53:04.088Z,2.13
2023-04-21T18:55:36.122Z,2.10
2023-04-21T18:58:03.886Z,1.80
2023-04-21T19:00:32.291Z,2.80
2023-04-21T19:03:01.054Z,4.75
2023-04-21T19:05:31.091Z,1.67
2023-04-21T19:07:58.987Z,1.38
2023-04-21T19:10:27.007Z,1.88
2023-04-21T19:12:54.724Z,1.80
2023-04-21T19:15:22.619Z,2.35
2023-04-21T19:17:49.849Z,1.80
2023-04-21T19:20:18.228Z,2.65
2023-04-21T19:22:45.760Z,1.63
2023-04-21T19:25:13.018Z,1.75
2023-04-21T19:27:41.388Z,1.48
2023-04-21T19:30:09.408Z,2.10
2023-04-21T19:32:36.767Z,1.70
2023-04-21T19:35:04.243Z,1.40
2023-04-21T19:37:33.602Z,1.27
2023-04-21T19:40:03.187Z,1.25
2023-04-21T19:42:30.590Z,1.42
2023-04-21T19:44:57.893Z,1.48
2023-04-21T19:47:25.196Z,2.10
2023-04-21T19:49:52.508Z,2.08
2023-04-21T19:52:19.827Z,1.80
2023-04-21T19:54:47.068Z,1.58
2023-04-21T19:57:14.433Z,2.47
2023-04-21T19:59:41.731Z,2.60
2023-04-21T20:02:09.595Z,2.38
2023-04-21T20:04:37.515Z,2.60
2023-04-21T20:07:05.111Z,2.70
2023-04-21T20:09:32.418Z,3.47
2023-04-21T20:11:59.644Z,2.85
2023-04-21T20:14:27.154Z,2.50
2023-04-21T20:16:54.381Z,2.50
2023-04-21T20:19:23.044Z,2.72
2023-04-21T20:21:50.308Z,2.78
2023-04-21T20:24:17.532Z,2.70
2023-04-21T20:26:45.946Z,2.97
2023-04-21T20:29:13.236Z,3.03
2023-04-21T20:31:41.226Z,3.00
2023-04-21T20:34:08.684Z,2.72
2023-04-21T20:36:36.941Z,2.65
2023-04-21T20:39:07.288Z,2.30
2023-04-21T20:41:34.507Z,2.38
2023-04-21T20:44:01.710Z,2.67
2023-04-21T20:46:29.915Z,2.67
2023-04-21T20:48:57.157Z,2.78
2023-04-21T20:51:24.651Z,3.50
2023-04-21T20:53:51.876Z,3.15
2023-04-21T20:56:19.346Z,3.13
2023-04-21T20:58:47.836Z,3.25
2023-04-21T21:01:15.073Z,3.17
2023-04-21T21:03:42.420Z,3.30
2023-04-21T21:06:10.529Z,3.25
2023-04-21T21:08:37.820Z,3.13
2023-04-21T21:11:06.313Z,3.55
2023-04-21T21:13:33.617Z,3.40
2023-04-21T21:16:00.796Z,4.32
2023-04-21T21:18:28.528Z,3.50
2023-04-21T21:20:55.919Z,4.32
2023-04-21T21:23:23.175Z,4.13
2023-04-21T21:25:50.837Z,4.68
2023-04-21T21:28:18.981Z,4.28
2023-04-21T21:30:46.273Z,4.03
2023-04-21T21:33:13.690Z,4.90
2023-04-21T21:35:41.841Z,4.78
2023-04-21T21:38:09.320Z,5.22
2023-04-21T21:40:36.699Z,5.13
2023-04-21T21:43:04.006Z,4.65
2023-04-21T21:45:31.478Z,4.93
2023-04-21T21:47:58.781Z,4.30
2023-04-21T21:50:26.696Z,4.00
2023-04-21T21:52:53.991Z,4.93
2023-04-21T21:55:21.320Z,4.65
2023-04-21T21:57:48.567Z,4.68
2023-04-21T22:00:16.108Z,4.10
2023-04-21T22:02:43.595Z,4.22
2023-04-21T22:05:11.639Z,3.95
2023-04-21T22:07:43.042Z,3.22
2023-04-21T22:10:11.387Z,3.47
2023-04-21T22:12:38.981Z,3.63
2023-04-21T22:15:06.875Z,3.15
2023-04-21T22:17:37.937Z,5.53
2023-04-21T22:20:08.230Z,4.10
2023-04-21T22:22:35.903Z,4.47
2023-04-21T22:25:03.417Z,4.47
2023-04-21T22:27:33.193Z,3.90
2023-04-21T22:30:03.547Z,4.10
2023-04-21T22:32:32.200Z,4.20
2023-04-21T22:35:00.017Z,3.83
2023-04-21T22:37:27.922Z,5.00
2023-04-21T22:39:57.499Z,3.95
2023-04-21T22:42:24.973Z,4.03
2023-04-21T22:44:52.421Z,3.38
2023-04-21T22:47:20.481Z,4.57
2023-04-21T22:49:47.784Z,4.00
2023-04-21T22:52:15.057Z,4.88
2023-04-21T22:54:42.409Z,3.90
2023-04-21T22:57:09.718Z,4.82
2023-04-21T22:59:37.143Z,4.72
2023-04-21T23:02:05.685Z,5.68
2023-04-21T23:04:33.102Z,4.57
2023-04-21T23:07:00.396Z,4.93
2023-04-21T23:09:27.653Z,5.03
2023-04-21T23:11:54.955Z,4.50
2023-04-21T23:14:22.216Z,4.75
2023-04-21T23:16:49.487Z,5.53
2023-04-21T23:19:16.919Z,5.32
2023-04-21T23:21:44.423Z,5.32
2023-04-21T23:24:11.679Z,5.50
2023-04-21T23:26:38.991Z,5.57
2023-04-21T23:29:06.295Z,5.60
2023-04-21T23:31:33.569Z,5.60
2023-04-21T23:34:01.000Z,7.03
2023-04-21T23:36:28.257Z,6.47
2023-04-21T23:38:55.999Z,5.90
2023-04-21T23:41:23.428Z,6.45
2023-04-21T23:43:50.627Z,6.50
2023-04-21T23:46:17.898Z,5.72
2023-04-21T23:48:45.321Z,6.00
2023-04-21T23:51:12.809Z,8.38
2023-04-21T23:53:40.337Z,7.35
2023-04-21T23:56:07.664Z,7.40
2023-04-21T23:58:34.870Z,8.13
